sensor_id;sensor_type;location;lat;lon;timestamp;temperature;humidity
18454;DHT22;9356;52.202;20.950;2022-12-13T00:00:52;0.90;99.90
18454;DHT22;9356;52.202;20.950;2022-12-13T00:01:56;0.50;99.90
18454;DHT22;9356;52.202;20.950;2022-12-13T00:02:59;0.80;99.90
18454;DHT22;9356;52.202;20.950;2022-12-13T00:04:05;0.80;99.90
18454;DHT22;9356;52.202;20.950;2022-12-13T00:05:09;1.90;99.90
18454;DHT22;9356;52.202;20.950;2022-12-13T00:06:14;0.80;99.90
18454;DHT22;9356;52.202;20.950;2022-12-13T00:07:17;0.80;99.90
18454;DHT22;9356;52.202;20.950;2022-12-13T00:08:20;0.80;99.90
18454;DHT22;9356;52.202;20.950;2022-12-13T00:09:23;0.80;99.90
18454;DHT22;9356;52.202;20.950;2022-12-13T00:10:28;1.00;99.90
18454;DHT22;9356;52.202;20.950;2022-12-13T00:11:32;0.70;99.90
18454;DHT22;9356;52.202;20.950;2022-12-13T00:12:35;0.70;99.90
18454;DHT22;9356;52.202;20.950;2022-12-13T00:13:38;0.70;99.90
18454;DHT22;9356;52.202;20.950;2022-12-13T00:14:42;0.70;99.90
18454;DHT22;9356;52.202;20.950;2022-12-13T00:15:54;0.60;99.90
18454;DHT22;9356;52.202;20.950;2022-12-13T00:16:58;0.60;99.90
18454;DHT22;9356;52.202;20.950;2022-12-13T00:18:01;0.60;99.90
18454;DHT22;9356;52.202;20.950;2022-12-13T00:19:04;1.70;99.90
18454;DHT22;9356;52.202;20.950;2022-12-13T00:20:08;0.80;99.90
18454;DHT22;9356;52.202;20.950;2022-12-13T00:21:13;0.70;99.90
18454;DHT22;9356;52.202;20.950;2022-12-13T00:22:17;0.80;99.90
18454;DHT22;9356;52.202;20.950;2022-12-13T00:23:20;0.80;99.90
18454;DHT22;9356;52.202;20.950;2022-12-13T00:24:22;0.80;99.90
18454;DHT22;9356;52.202;20.950;2022-12-13T00:25:27;0.80;99.90
18454;DHT22;9356;52.202;20.950;2022-12-13T00:26:31;0.80;99.90
18454;DHT22;9356;52.202;20.950;2022-12-13T00:27:35;0.80;99.90
18454;DHT22;9356;52.202;20.950;2022-12-13T00:28:39;0.70;99.90
18454;DHT22;9356;52.202;20.950;2022-12-13T00:29:42;0.70;99.90
18454;DHT22;9356;52.202;20.950;2022-12-13T00:30:46;0.80;99.90
18454;DHT22;9356;52.202;20.950;2022-12-13T00:31:48;0.80;99.90
18454;DHT22;9356;52.202;20.950;2022-12-13T00:33:04;0.70;99.90
18454;DHT22;9356;52.202;20.950;2022-12-13T00:34:07;0.80;99.90
18454;DHT22;9356;52.202;20.950;2022-12-13T00:35:11;0.70;99.90
18454;DHT22;9356;52.202;20.950;2022-12-13T00:36:14;0.70;99.90
18454;DHT22;9356;52.202;20.950;2022-12-13T00:37:18;0.70;99.90
18454;DHT22;9356;52.202;20.950;2022-12-13T00:38:22;0.10;99.90
18454;DHT22;9356;52.202;20.950;2022-12-13T00:39:26;0.70;99.90
18454;DHT22;9356;52.202;20.950;2022-12-13T00:40:31;0.60;99.90
18454;DHT22;9356;52.202;20.950;2022-12-13T00:41:35;0.70;99.90
18454;DHT22;9356;52.202;20.950;2022-12-13T00:42:38;0.70;99.90
18454;DHT22;9356;52.202;20.950;2022-12-13T00:43:42;0.70;99.90
18454;DHT22;9356;52.202;20.950;2022-12-13T00:44:45;0.80;99.90
18454;DHT22;9356;52.202;20.950;2022-12-13T00:45:48;0.80;99.90
18454;DHT22;9356;52.202;20.950;2022-12-13T00:46:51;0.70;99.90
18454;DHT22;9356;52.202;20.950;2022-12-13T00:47:54;0.80;99.90
18454;DHT22;9356;52.202;20.950;2022-12-13T00:48:59;0.70;99.90
18454;DHT22;9356;52.202;20.950;2022-12-13T00:50:04;0.70;99.90
18454;DHT22;9356;52.202;20.950;2022-12-13T00:51:09;0.70;99.90
18454;DHT22;9356;52.202;20.950;2022-12-13T00:52:12;0.70;99.90
18454;DHT22;9356;52.202;20.950;2022-12-13T00:53:15;0.80;99.90
18454;DHT22;9356;52.202;20.950;2022-12-13T00:54:18;0.80;99.90
18454;DHT22;9356;52.202;20.950;2022-12-13T00:55:21;0.80;99.90
18454;DHT22;9356;52.202;20.950;2022-12-13T00:56:27;0.70;99.90
18454;DHT22;9356;52.202;20.950;2022-12-13T00:57:31;0.80;99.90
18454;DHT22;9356;52.202;20.950;2022-12-13T00:58:36;0.70;99.90
18454;DHT22;9356;52.202;20.950;2022-12-13T00:59:39;0.80;99.90
18454;DHT22;9356;52.202;20.950;2022-12-13T01:00:43;0.80;99.90
18454;DHT22;9356;52.202;20.950;2022-12-13T01:01:45;0.80;99.90
18454;DHT22;9356;52.202;20.950;2022-12-13T01:02:49;0.80;99.90
18454;DHT22;9356;52.202;20.950;2022-12-13T01:03:53;0.90;99.90
18454;DHT22;9356;52.202;20.950;2022-12-13T01:04:57;0.80;99.90
18454;DHT22;9356;52.202;20.950;2022-12-13T01:06:00;0.90;99.90
18454;DHT22;9356;52.202;20.950;2022-12-13T01:07:16;0.90;99.90
18454;DHT22;9356;52.202;20.950;2022-12-13T01:08:20;0.90;99.90
18454;DHT22;9356;52.202;20.950;2022-12-13T01:09:24;0.90;99.90
18454;DHT22;9356;52.202;20.950;2022-12-13T01:10:31;1.00;99.90
18454;DHT22;9356;52.202;20.950;2022-12-13T01:11:35;1.10;99.90
18454;DHT22;9356;52.202;20.950;2022-12-13T01:12:38;1.10;99.90
18454;DHT22;9356;52.202;20.950;2022-12-13T01:13:41;1.10;99.90
18454;DHT22;9356;52.202;20.950;2022-12-13T01:14:44;1.10;99.90
18454;DHT22;9356;52.202;20.950;2022-12-13T01:15:54;-0.20;99.90
18454;DHT22;9356;52.202;20.950;2022-12-13T01:16:56;1.90;99.90
18454;DHT22;9356;52.202;20.950;2022-12-13T01:18:00;1.10;99.90
18454;DHT22;9356;52.202;20.950;2022-12-13T01:19:04;1.00;99.90
18454;DHT22;9356;52.202;20.950;2022-12-13T01:20:09;1.00;99.90
18454;DHT22;9356;52.202;20.950;2022-12-13T01:21:16;1.10;99.90
18454;DHT22;9356;52.202;20.950;2022-12-13T01:22:20;1.10;99.90
18454;DHT22;9356;52.202;20.950;2022-12-13T01:23:22;1.00;99.90
18454;DHT22;9356;52.202;20.950;2022-12-13T01:24:26;1.10;99.90
18454;DHT22;9356;52.202;20.950;2022-12-13T01:25:29;1.10;99.90
18454;DHT22;9356;52.202;20.950;2022-12-13T01:26:36;1.10;99.90
18454;DHT22;9356;52.202;20.950;2022-12-13T01:27:39;1.10;99.90
18454;DHT22;9356;52.202;20.950;2022-12-13T01:28:45;1.00;99.90
18454;DHT22;9356;52.202;20.950;2022-12-13T01:29:49;1.10;99.90
18454;DHT22;9356;52.202;20.950;2022-12-13T01:30:54;1.10;99.90
18454;DHT22;9356;52.202;20.950;2022-12-13T01:31:57;1.30;99.90
18454;DHT22;9356;52.202;20.950;2022-12-13T01:33:00;1.10;99.90
18454;DHT22;9356;52.202;20.950;2022-12-13T01:34:17;1.10;99.90
18454;DHT22;9356;52.202;20.950;2022-12-13T01:35:20;1.10;99.90
18454;DHT22;9356;52.202;20.950;2022-12-13T01:36:23;1.10;99.90
18454;DHT22;9356;52.202;20.950;2022-12-13T01:37:29;1.10;99.90
18454;DHT22;9356;52.202;20.950;2022-12-13T01:38:38;1.10;99.90
18454;DHT22;9356;52.202;20.950;2022-12-13T01:39:40;1.80;99.90
18454;DHT22;9356;52.202;20.950;2022-12-13T01:40:45;1.10;99.90
18454;DHT22;9356;52.202;20.950;2022-12-13T01:41:51;1.00;99.90
18454;DHT22;9356;52.202;20.950;2022-12-13T01:43:01;1.10;99.90
18454;DHT22;9356;52.202;20.950;2022-12-13T01:45:56;1.00;99.90
18454;DHT22;9356;52.202;20.950;2022-12-13T01:46:59;1.00;99.90
18454;DHT22;9356;52.202;20.950;2022-12-13T01:48:07;1.00;99.90
18454;DHT22;9356;52.202;20.950;2022-12-13T01:49:15;1.00;99.90
18454;DHT22;9356;52.202;20.950;2022-12-13T01:50:26;1.00;99.90
18454;DHT22;9356;52.202;20.950;2022-12-13T01:51:34;0.90;99.90
18454;DHT22;9356;52.202;20.950;2022-12-13T01:52:39;0.90;99.90
18454;DHT22;9356;52.202;20.950;2022-12-13T01:53:46;0.90;99.90
18454;DHT22;9356;52.202;20.950;2022-12-13T01:54:55;0.90;99.90
18454;DHT22;9356;52.202;20.950;2022-12-13T01:56:09;0.80;99.90
18454;DHT22;9356;52.202;20.950;2022-12-13T01:57:17;0.70;99.90
18454;DHT22;9356;52.202;20.950;2022-12-13T01:58:22;0.90;99.90
18454;DHT22;9356;52.202;20.950;2022-12-13T01:59:27;0.90;99.90
18454;DHT22;9356;52.202;20.950;2022-12-13T02:00:31;1.00;99.90
18454;DHT22;9356;52.202;20.950;2022-12-13T02:01:37;0.80;99.90
18454;DHT22;9356;52.202;20.950;2022-12-13T02:02:40;0.70;99.90
18454;DHT22;9356;52.202;20.950;2022-12-13T02:03:44;0.60;99.90
18454;DHT22;9356;52.202;20.950;2022-12-13T02:04:53;0.60;99.90
18454;DHT22;9356;52.202;20.950;2022-12-13T02:06:02;0.60;99.90
18454;DHT22;9356;52.202;20.950;2022-12-13T02:07:08;0.80;99.90
18454;DHT22;9356;52.202;20.950;2022-12-13T02:08:14;0.70;99.90
18454;DHT22;9356;52.202;20.950;2022-12-13T02:09:19;0.60;99.90
18454;DHT22;9356;52.202;20.950;2022-12-13T02:10:23;0.50;99.90
18454;DHT22;9356;52.202;20.950;2022-12-13T02:11:28;0.50;99.90
18454;DHT22;9356;52.202;20.950;2022-12-13T02:12:34;0.50;99.90
18454;DHT22;9356;52.202;20.950;2022-12-13T02:13:38;0.50;99.90
18454;DHT22;9356;52.202;20.950;2022-12-13T02:14:41;0.50;99.90
18454;DHT22;9356;52.202;20.950;2022-12-13T02:15:54;0.50;99.90
18454;DHT22;9356;52.202;20.950;2022-12-13T02:17:07;0.50;99.90
18454;DHT22;9356;52.202;20.950;2022-12-13T02:18:30;0.60;99.90
18454;DHT22;9356;52.202;20.950;2022-12-13T02:20:12;0.60;99.90
18454;DHT22;9356;52.202;20.950;2022-12-13T02:21:33;0.60;99.90
18454;DHT22;9356;52.202;20.950;2022-12-13T02:22:56;0.60;99.90
18454;DHT22;9356;52.202;20.950;2022-12-13T02:24:29;0.60;99.90
18454;DHT22;9356;52.202;20.950;2022-12-13T02:25:57;0.70;99.90
18454;DHT22;9356;52.202;20.950;2022-12-13T02:27:10;1.80;99.90
18454;DHT22;9356;52.202;20.950;2022-12-13T02:28:33;0.60;99.90
18454;DHT22;9356;52.202;20.950;2022-12-13T02:31:28;0.60;99.90
18454;DHT22;9356;52.202;20.950;2022-12-13T02:32:40;0.70;99.90
18454;DHT22;9356;52.202;20.950;2022-12-13T02:33:51;0.60;99.90
18454;DHT22;9356;52.202;20.950;2022-12-13T02:35:02;0.60;99.90
18454;DHT22;9356;52.202;20.950;2022-12-13T02:36:12;0.60;99.90
18454;DHT22;9356;52.202;20.950;2022-12-13T02:37:25;0.70;99.90
18454;DHT22;9356;52.202;20.950;2022-12-13T02:38:36;0.70;99.90
18454;DHT22;9356;52.202;20.950;2022-12-13T02:39:47;0.10;99.90
18454;DHT22;9356;52.202;20.950;2022-12-13T02:40:57;0.50;99.90
18454;DHT22;9356;52.202;20.950;2022-12-13T02:42:06;0.50;99.90
18454;DHT22;9356;52.202;20.950;2022-12-13T02:43:27;0.60;99.90
18454;DHT22;9356;52.202;20.950;2022-12-13T02:44:40;0.60;99.90
18454;DHT22;9356;52.202;20.950;2022-12-13T02:45:46;0.70;99.90
18454;DHT22;9356;52.202;20.950;2022-12-13T02:46:55;0.70;99.90
18454;DHT22;9356;52.202;20.950;2022-12-13T02:48:03;0.60;99.90
18454;DHT22;9356;52.202;20.950;2022-12-13T02:49:09;0.60;99.90
18454;DHT22;9356;52.202;20.950;2022-12-13T02:50:14;0.60;99.90
18454;DHT22;9356;52.202;20.950;2022-12-13T02:51:19;0.70;99.90
18454;DHT22;9356;52.202;20.950;2022-12-13T02:52:27;0.80;99.90
18454;DHT22;9356;52.202;20.950;2022-12-13T02:53:33;0.70;99.90
18454;DHT22;9356;52.202;20.950;2022-12-13T02:54:36;0.80;99.90
18454;DHT22;9356;52.202;20.950;2022-12-13T02:55:44;0.80;99.90
18454;DHT22;9356;52.202;20.950;2022-12-13T02:56:53;0.70;99.90
18454;DHT22;9356;52.202;20.950;2022-12-13T02:57:56;0.80;99.90
18454;DHT22;9356;52.202;20.950;2022-12-13T02:59:04;0.70;99.90
18454;DHT22;9356;52.202;20.950;2022-12-13T03:00:13;0.70;99.90
18454;DHT22;9356;52.202;20.950;2022-12-13T03:01:31;0.70;99.90
18454;DHT22;9356;52.202;20.950;2022-12-13T03:02:58;0.80;99.90
18454;DHT22;9356;52.202;20.950;2022-12-13T03:04:12;0.80;99.90
18454;DHT22;9356;52.202;20.950;2022-12-13T03:05:39;0.70;99.90
18454;DHT22;9356;52.202;20.950;2022-12-13T03:07:10;0.90;99.90
18454;DHT22;9356;52.202;20.950;2022-12-13T03:08:21;0.90;99.90
18454;DHT22;9356;52.202;20.950;2022-12-13T03:09:36;0.90;99.90
18454;DHT22;9356;52.202;20.950;2022-12-13T03:10:47;0.80;99.90
18454;DHT22;9356;52.202;20.950;2022-12-13T03:12:03;1.60;99.90
18454;DHT22;9356;52.202;20.950;2022-12-13T03:13:33;0.90;99.90
18454;DHT22;9356;52.202;20.950;2022-12-13T03:14:52;0.90;99.90
18454;DHT22;9356;52.202;20.950;2022-12-13T03:15:59;0.90;99.90
18454;DHT22;9356;52.202;20.950;2022-12-13T03:17:08;0.90;99.90
18454;DHT22;9356;52.202;20.950;2022-12-13T03:18:16;0.90;99.90
18454;DHT22;9356;52.202;20.950;2022-12-13T03:19:21;0.90;99.90
18454;DHT22;9356;52.202;20.950;2022-12-13T03:20:27;2.30;99.90
18454;DHT22;9356;52.202;20.950;2022-12-13T03:21:37;1.00;99.90
18454;DHT22;9356;52.202;20.950;2022-12-13T03:22:48;0.90;99.90
18454;DHT22;9356;52.202;20.950;2022-12-13T03:23:50;1.00;99.90
18454;DHT22;9356;52.202;20.950;2022-12-13T03:24:54;0.80;99.90
18454;DHT22;9356;52.202;20.950;2022-12-13T03:26:02;2.00;99.90
18454;DHT22;9356;52.202;20.950;2022-12-13T03:27:07;0.70;99.90
18454;DHT22;9356;52.202;20.950;2022-12-13T03:28:10;0.30;99.90
18454;DHT22;9356;52.202;20.950;2022-12-13T03:29:13;0.30;99.90
18454;DHT22;9356;52.202;20.950;2022-12-13T03:32:10;0.40;99.90
18454;DHT22;9356;52.202;20.950;2022-12-13T03:33:14;0.20;99.90
18454;DHT22;9356;52.202;20.950;2022-12-13T03:34:18;0.10;99.90
18454;DHT22;9356;52.202;20.950;2022-12-13T03:35:24;0.10;99.90
18454;DHT22;9356;52.202;20.950;2022-12-13T03:36:36;0.00;99.90
18454;DHT22;9356;52.202;20.950;2022-12-13T03:37:40;0.10;99.90
18454;DHT22;9356;52.202;20.950;2022-12-13T03:38:42;0.20;99.90
18454;DHT22;9356;52.202;20.950;2022-12-13T03:39:46;0.10;99.90
18454;DHT22;9356;52.202;20.950;2022-12-13T03:40:50;0.10;99.90
18454;DHT22;9356;52.202;20.950;2022-12-13T03:41:55;0.10;99.90
18454;DHT22;9356;52.202;20.950;2022-12-13T03:43:02;0.20;99.90
18454;DHT22;9356;52.202;20.950;2022-12-13T03:44:07;0.10;99.90
18454;DHT22;9356;52.202;20.950;2022-12-13T03:45:11;0.20;99.90
18454;DHT22;9356;52.202;20.950;2022-12-13T03:46:14;0.20;99.90
18454;DHT22;9356;52.202;20.950;2022-12-13T03:47:18;0.40;99.90
18454;DHT22;9356;52.202;20.950;2022-12-13T03:48:22;0.10;99.90
18454;DHT22;9356;52.202;20.950;2022-12-13T03:49:26;0.00;99.90
18454;DHT22;9356;52.202;20.950;2022-12-13T03:50:36;0.00;99.90
18454;DHT22;9356;52.202;20.950;2022-12-13T03:51:40;-0.10;99.90
18454;DHT22;9356;52.202;20.950;2022-12-13T03:52:43;-0.10;99.90
18454;DHT22;9356;52.202;20.950;2022-12-13T03:53:48;-0.10;99.90
18454;DHT22;9356;52.202;20.950;2022-12-13T03:54:52;-0.10;99.90
18454;DHT22;9356;52.202;20.950;2022-12-13T03:55:55;-0.10;99.90
18454;DHT22;9356;52.202;20.950;2022-12-13T03:57:01;-0.20;99.90
18454;DHT22;9356;52.202;20.950;2022-12-13T03:58:04;-0.10;99.90
18454;DHT22;9356;52.202;20.950;2022-12-13T03:59:09;-0.40;99.90
18454;DHT22;9356;52.202;20.950;2022-12-13T04:00:13;-0.10;99.90
18454;DHT22;9356;52.202;20.950;2022-12-13T04:01:17;-0.10;99.90
18454;DHT22;9356;52.202;20.950;2022-12-13T04:02:21;0.00;99.90
18454;DHT22;9356;52.202;20.950;2022-12-13T04:03:34;-0.10;99.90
18454;DHT22;9356;52.202;20.950;2022-12-13T04:04:37;-0.10;99.90
18454;DHT22;9356;52.202;20.950;2022-12-13T04:05:39;-0.50;99.90
18454;DHT22;9356;52.202;20.950;2022-12-13T04:06:43;0.10;99.90
18454;DHT22;9356;52.202;20.950;2022-12-13T04:07:47;-0.10;99.90
18454;DHT22;9356;52.202;20.950;2022-12-13T04:08:49;-0.10;99.90
18454;DHT22;9356;52.202;20.950;2022-12-13T04:09:53;-0.10;99.90
18454;DHT22;9356;52.202;20.950;2022-12-13T04:10:56;0.00;99.90
18454;DHT22;9356;52.202;20.950;2022-12-13T04:11:59;0.00;99.90
18454;DHT22;9356;52.202;20.950;2022-12-13T04:13:23;0.00;99.90
18454;DHT22;9356;52.202;20.950;2022-12-13T04:14:35;0.00;99.90
18454;DHT22;9356;52.202;20.950;2022-12-13T04:15:39;0.00;99.90
18454;DHT22;9356;52.202;20.950;2022-12-13T04:16:41;0.00;99.90
18454;DHT22;9356;52.202;20.950;2022-12-13T04:17:45;0.00;99.90
18454;DHT22;9356;52.202;20.950;2022-12-13T04:18:53;0.10;99.90
18454;DHT22;9356;52.202;20.950;2022-12-13T04:19:58;0.00;99.90
18454;DHT22;9356;52.202;20.950;2022-12-13T04:21:02;0.10;99.90
18454;DHT22;9356;52.202;20.950;2022-12-13T04:22:04;0.00;99.90
18454;DHT22;9356;52.202;20.950;2022-12-13T04:23:08;0.10;99.90
18454;DHT22;9356;52.202;20.950;2022-12-13T04:24:11;0.00;99.90
18454;DHT22;9356;52.202;20.950;2022-12-13T04:25:15;0.10;99.90
18454;DHT22;9356;52.202;20.950;2022-12-13T04:26:18;0.10;99.90
18454;DHT22;9356;52.202;20.950;2022-12-13T04:27:22;0.00;99.90
18454;DHT22;9356;52.202;20.950;2022-12-13T04:28:24;0.10;99.90
18454;DHT22;9356;52.202;20.950;2022-12-13T04:29:28;-0.50;99.90
18454;DHT22;9356;52.202;20.950;2022-12-13T04:30:35;0.00;99.90
18454;DHT22;9356;52.202;20.950;2022-12-13T04:31:39;0.60;99.90
18454;DHT22;9356;52.202;20.950;2022-12-13T04:32:43;0.00;99.90
18454;DHT22;9356;52.202;20.950;2022-12-13T04:33:46;0.00;99.90
18454;DHT22;9356;52.202;20.950;2022-12-13T04:34:50;0.10;99.90
18454;DHT22;9356;52.202;20.950;2022-12-13T04:36:02;0.10;99.90
18454;DHT22;9356;52.202;20.950;2022-12-13T04:37:06;0.10;99.90
18454;DHT22;9356;52.202;20.950;2022-12-13T04:38:08;0.20;99.90
18454;DHT22;9356;52.202;20.950;2022-12-13T04:39:12;0.20;99.90
18454;DHT22;9356;52.202;20.950;2022-12-13T04:40:23;0.20;99.90
18454;DHT22;9356;52.202;20.950;2022-12-13T04:41:28;0.90;99.90
18454;DHT22;9356;52.202;20.950;2022-12-13T04:42:35;0.00;99.90
18454;DHT22;9356;52.202;20.950;2022-12-13T04:43:39;0.10;99.90
18454;DHT22;9356;52.202;20.950;2022-12-13T04:44:41;0.10;99.90
18454;DHT22;9356;52.202;20.950;2022-12-13T04:45:47;0.10;99.90
18454;DHT22;9356;52.202;20.950;2022-12-13T04:46:49;0.20;99.90
18454;DHT22;9356;52.202;20.950;2022-12-13T04:47:53;0.10;99.90
18454;DHT22;9356;52.202;20.950;2022-12-13T04:48:55;0.10;99.90
18454;DHT22;9356;52.202;20.950;2022-12-13T04:50:03;0.00;99.90
18454;DHT22;9356;52.202;20.950;2022-12-13T04:51:05;0.00;99.90
18454;DHT22;9356;52.202;20.950;2022-12-13T04:52:09;-0.10;99.90
18454;DHT22;9356;52.202;20.950;2022-12-13T04:53:13;0.00;99.90
18454;DHT22;9356;52.202;20.950;2022-12-13T04:54:17;-0.10;99.90
18454;DHT22;9356;52.202;20.950;2022-12-13T04:55:25;-0.20;99.90
18454;DHT22;9356;52.202;20.950;2022-12-13T04:56:29;-0.20;99.90
18454;DHT22;9356;52.202;20.950;2022-12-13T04:57:32;-0.20;99.90
18454;DHT22;9356;52.202;20.950;2022-12-13T04:58:35;-0.10;99.90
18454;DHT22;9356;52.202;20.950;2022-12-13T04:59:39;-0.10;99.90
18454;DHT22;9356;52.202;20.950;2022-12-13T05:00:43;-0.20;99.90
18454;DHT22;9356;52.202;20.950;2022-12-13T05:01:45;-0.10;99.90
18454;DHT22;9356;52.202;20.950;2022-12-13T05:02:49;-0.10;99.90
18454;DHT22;9356;52.202;20.950;2022-12-13T05:03:52;0.00;99.90
18454;DHT22;9356;52.202;20.950;2022-12-13T05:04:55;-0.10;99.90
18454;DHT22;9356;52.202;20.950;2022-12-13T05:42:43;0.30;99.90
18454;DHT22;9356;52.202;20.950;2022-12-13T06:20:36;-0.10;99.90
18454;DHT22;9356;52.202;20.950;2022-12-13T06:32:05;0.00;99.90
18454;DHT22;9356;52.202;20.950;2022-12-13T06:39:01;-0.30;99.90
18454;DHT22;9356;52.202;20.950;2022-12-13T06:40:05;-0.20;99.90
18454;DHT22;9356;52.202;20.950;2022-12-13T06:41:10;-1.20;99.90
18454;DHT22;9356;52.202;20.950;2022-12-13T06:42:16;-0.30;99.90
18454;DHT22;9356;52.202;20.950;2022-12-13T06:43:23;-0.30;99.90
18454;DHT22;9356;52.202;20.950;2022-12-13T06:44:30;-0.40;99.90
18454;DHT22;9356;52.202;20.950;2022-12-13T06:45:37;-0.40;99.90
18454;DHT22;9356;52.202;20.950;2022-12-13T06:46:39;-0.40;99.90
18454;DHT22;9356;52.202;20.950;2022-12-13T06:47:43;-0.40;99.90
18454;DHT22;9356;52.202;20.950;2022-12-13T06:48:47;-0.40;99.90
18454;DHT22;9356;52.202;20.950;2022-12-13T06:49:52;-0.30;99.90
18454;DHT22;9356;52.202;20.950;2022-12-13T06:50:54;-0.30;99.90
18454;DHT22;9356;52.202;20.950;2022-12-13T06:52:01;-0.20;99.90
18454;DHT22;9356;52.202;20.950;2022-12-13T06:53:03;-0.40;99.90
18454;DHT22;9356;52.202;20.950;2022-12-13T06:54:08;-0.40;99.90
18454;DHT22;9356;52.202;20.950;2022-12-13T06:55:12;-0.50;99.90
18454;DHT22;9356;52.202;20.950;2022-12-13T06:56:25;-0.60;99.90
18454;DHT22;9356;52.202;20.950;2022-12-13T06:57:31;-0.60;99.90
18454;DHT22;9356;52.202;20.950;2022-12-13T06:58:34;-0.50;99.90
18454;DHT22;9356;52.202;20.950;2022-12-13T06:59:37;-0.60;99.90
18454;DHT22;9356;52.202;20.950;2022-12-13T07:00:42;-0.60;99.90
18454;DHT22;9356;52.202;20.950;2022-12-13T07:01:50;-0.60;99.90
18454;DHT22;9356;52.202;20.950;2022-12-13T07:02:54;-0.50;99.90
18454;DHT22;9356;52.202;20.950;2022-12-13T07:03:59;-0.50;99.90
18454;DHT22;9356;52.202;20.950;2022-12-13T07:05:02;-0.50;99.90
18454;DHT22;9356;52.202;20.950;2022-12-13T07:06:08;-0.50;99.90
18454;DHT22;9356;52.202;20.950;2022-12-13T07:07:13;-1.60;99.90
18454;DHT22;9356;52.202;20.950;2022-12-13T07:08:16;-0.50;99.90
18454;DHT22;9356;52.202;20.950;2022-12-13T07:09:25;-0.60;99.90
18454;DHT22;9356;52.202;20.950;2022-12-13T07:10:30;-0.80;99.90
18454;DHT22;9356;52.202;20.950;2022-12-13T07:11:34;-0.50;99.90
18454;DHT22;9356;52.202;20.950;2022-12-13T07:12:37;-0.70;99.90
18454;DHT22;9356;52.202;20.950;2022-12-13T07:13:41;-0.60;99.90
18454;DHT22;9356;52.202;20.950;2022-12-13T07:14:44;-0.70;99.90
18454;DHT22;9356;52.202;20.950;2022-12-13T07:15:48;-0.60;99.90
18454;DHT22;9356;52.202;20.950;2022-12-13T07:16:52;-0.70;99.90
18454;DHT22;9356;52.202;20.950;2022-12-13T07:18:04;-0.60;99.90
18454;DHT22;9356;52.202;20.950;2022-12-13T07:19:09;-0.60;99.90
18454;DHT22;9356;52.202;20.950;2022-12-13T07:20:25;-0.70;99.90
18454;DHT22;9356;52.202;20.950;2022-12-13T07:21:29;-0.60;99.90
18454;DHT22;9356;52.202;20.950;2022-12-13T07:22:32;-0.60;99.90
18454;DHT22;9356;52.202;20.950;2022-12-13T07:23:44;-0.60;99.90
18454;DHT22;9356;52.202;20.950;2022-12-13T07:24:57;-0.60;99.90
18454;DHT22;9356;52.202;20.950;2022-12-13T07:26:01;-0.60;99.90
18454;DHT22;9356;52.202;20.950;2022-12-13T07:27:04;-0.60;99.90
18454;DHT22;9356;52.202;20.950;2022-12-13T07:28:08;-0.50;99.90
18454;DHT22;9356;52.202;20.950;2022-12-13T07:29:12;0.00;99.90
18454;DHT22;9356;52.202;20.950;2022-12-13T07:30:24;-0.50;99.90
18454;DHT22;9356;52.202;20.950;2022-12-13T07:31:26;-0.60;99.90
18454;DHT22;9356;52.202;20.950;2022-12-13T07:32:31;-0.60;99.90
18454;DHT22;9356;52.202;20.950;2022-12-13T07:33:35;-0.60;99.90
18454;DHT22;9356;52.202;20.950;2022-12-13T07:34:38;-0.60;99.90
18454;DHT22;9356;52.202;20.950;2022-12-13T07:35:41;-0.60;99.90
18454;DHT22;9356;52.202;20.950;2022-12-13T07:36:45;-0.50;99.90
18454;DHT22;9356;52.202;20.950;2022-12-13T07:37:47;-0.60;99.90
18454;DHT22;9356;52.202;20.950;2022-12-13T07:38:53;-0.60;99.90
18454;DHT22;9356;52.202;20.950;2022-12-13T07:39:59;-0.60;99.90
18454;DHT22;9356;52.202;20.950;2022-12-13T07:41:06;-0.60;99.90
18454;DHT22;9356;52.202;20.950;2022-12-13T07:42:10;-0.60;99.90
18454;DHT22;9356;52.202;20.950;2022-12-13T07:43:13;-0.60;99.90
18454;DHT22;9356;52.202;20.950;2022-12-13T07:44:18;-0.50;99.90
18454;DHT22;9356;52.202;20.950;2022-12-13T07:45:22;-0.50;99.90
18454;DHT22;9356;52.202;20.950;2022-12-13T07:46:28;-0.50;99.90
18454;DHT22;9356;52.202;20.950;2022-12-13T07:47:34;-0.50;99.90
18454;DHT22;9356;52.202;20.950;2022-12-13T07:48:37;-0.30;99.90
18454;DHT22;9356;52.202;20.950;2022-12-13T07:49:41;-0.20;99.90
18454;DHT22;9356;52.202;20.950;2022-12-13T07:50:44;-0.30;99.90
18454;DHT22;9356;52.202;20.950;2022-12-13T07:51:55;-0.30;99.90
18454;DHT22;9356;52.202;20.950;2022-12-13T07:53:03;-0.40;99.90
18454;DHT22;9356;52.202;20.950;2022-12-13T07:54:07;-0.50;99.90
18454;DHT22;9356;52.202;20.950;2022-12-13T07:55:13;-0.50;99.90
18454;DHT22;9356;52.202;20.950;2022-12-13T07:56:16;-0.40;99.90
18454;DHT22;9356;52.202;20.950;2022-12-13T07:57:20;-0.30;99.90
18454;DHT22;9356;52.202;20.950;2022-12-13T07:58:22;-0.20;99.90
18454;DHT22;9356;52.202;20.950;2022-12-13T07:59:26;-0.20;99.90
18454;DHT22;9356;52.202;20.950;2022-12-13T08:00:30;-0.20;99.90
18454;DHT22;9356;52.202;20.950;2022-12-13T08:01:34;-0.20;99.90
18454;DHT22;9356;52.202;20.950;2022-12-13T08:02:39;-0.20;99.90
18454;DHT22;9356;52.202;20.950;2022-12-13T08:03:43;-0.20;99.90
18454;DHT22;9356;52.202;20.950;2022-12-13T08:04:47;-0.20;99.90
18454;DHT22;9356;52.202;20.950;2022-12-13T08:06:00;-0.90;99.90
18454;DHT22;9356;52.202;20.950;2022-12-13T08:07:05;-0.40;99.90
18454;DHT22;9356;52.202;20.950;2022-12-13T08:08:10;-1.60;99.90
18454;DHT22;9356;52.202;20.950;2022-12-13T08:09:14;-0.40;99.90
18454;DHT22;9356;52.202;20.950;2022-12-13T08:10:19;-0.40;99.90
18454;DHT22;9356;52.202;20.950;2022-12-13T08:11:23;-0.30;99.90
18454;DHT22;9356;52.202;20.950;2022-12-13T08:12:27;-0.50;99.90
18454;DHT22;9356;52.202;20.950;2022-12-13T08:13:32;-0.60;99.90
18454;DHT22;9356;52.202;20.950;2022-12-13T08:14:36;-0.70;99.90
18454;DHT22;9356;52.202;20.950;2022-12-13T08:15:40;-0.20;99.90
18454;DHT22;9356;52.202;20.950;2022-12-13T08:16:44;-0.60;99.90
18454;DHT22;9356;52.202;20.950;2022-12-13T08:17:48;-0.70;99.90
18454;DHT22;9356;52.202;20.950;2022-12-13T08:18:50;-0.60;99.90
18454;DHT22;9356;52.202;20.950;2022-12-13T08:20:05;-0.50;99.90
18454;DHT22;9356;52.202;20.950;2022-12-13T08:21:10;-0.60;99.90
18454;DHT22;9356;52.202;20.950;2022-12-13T08:22:33;-0.50;99.90
18454;DHT22;9356;52.202;20.950;2022-12-13T08:23:37;-0.50;99.90
18454;DHT22;9356;52.202;20.950;2022-12-13T08:24:40;-0.40;99.90
18454;DHT22;9356;52.202;20.950;2022-12-13T08:25:51;-0.40;99.90
18454;DHT22;9356;52.202;20.950;2022-12-13T08:26:57;-0.50;99.90
18454;DHT22;9356;52.202;20.950;2022-12-13T08:28:03;-0.60;99.90
18454;DHT22;9356;52.202;20.950;2022-12-13T08:29:07;0.20;99.90
18454;DHT22;9356;52.202;20.950;2022-12-13T08:30:11;-0.60;99.90
18454;DHT22;9356;52.202;20.950;2022-12-13T08:31:24;-0.50;99.90
18454;DHT22;9356;52.202;20.950;2022-12-13T08:32:35;-0.60;99.90
18454;DHT22;9356;52.202;20.950;2022-12-13T08:33:39;-0.50;99.90
18454;DHT22;9356;52.202;20.950;2022-12-13T08:34:45;-0.60;99.90
18454;DHT22;9356;52.202;20.950;2022-12-13T08:35:49;-0.60;99.90
18454;DHT22;9356;52.202;20.950;2022-12-13T08:36:52;0.60;99.90
18454;DHT22;9356;52.202;20.950;2022-12-13T08:38:04;-0.70;99.90